createdAt,value
2024-05-09T00:05:57.082Z,102637.88
2024-05-09T00:15:58.550Z,102641.31
2024-05-09T00:26:00.011Z,102636.06
2024-05-09T00:36:01.415Z,102634.34
2024-05-09T00:46:02.797Z,102631.69
2024-05-09T00:56:04.271Z,102623.03
2024-05-09T01:06:05.871Z,102618.63
2024-05-09T01:16:07.258Z,102605.41
2024-05-09T01:26:08.650Z,102597.63
2024-05-09T01:36:10.024Z,102600.22
2024-05-09T01:46:11.413Z,102592.34
2024-05-09T01:56:12.802Z,102595.88
2024-05-09T02:06:14.308Z,102594.03
2024-05-09T02:16:15.748Z,102588.03
2024-05-09T02:26:17.228Z,102594.06
2024-05-09T02:36:18.706Z,102595.94
2024-05-09T02:46:20.077Z,102609.03
2024-05-09T02:56:21.506Z,102590.69
2024-05-09T03:06:22.966Z,102579.28
2024-05-09T03:16:24.347Z,102594.22
2024-05-09T03:26:25.808Z,102578.50
2024-05-09T03:36:27.283Z,102586.34
2024-05-09T03:46:28.660Z,102580.22
2024-05-09T03:56:30.132Z,102577.59
2024-05-09T04:06:31.606Z,102571.53
2024-05-09T04:16:32.969Z,102573.34
2024-05-09T04:26:34.880Z,102582.03
2024-05-09T04:36:36.311Z,102587.19
2024-05-09T04:46:37.673Z,102589.78
2024-05-09T04:56:39.132Z,102571.47
2024-05-09T05:06:40.610Z,102582.72
2024-05-09T05:16:41.981Z,102579.09
2024-05-09T05:26:43.410Z,102589.50
2024-05-09T05:36:44.808Z,102600.16
2024-05-09T05:46:46.617Z,102606.06
2024-05-09T05:56:49.244Z,102608.56
2024-05-09T06:06:50.986Z,102610.00
2024-05-09T06:16:54.652Z,102614.09
2024-05-09T06:27:00.433Z,102625.41
2024-05-09T06:37:07.712Z,102613.69
2024-05-09T06:47:10.621Z,102610.88
2024-05-09T06:57:13.588Z,102613.31
2024-05-09T07:07:17.469Z,102611.34
2024-05-09T07:17:19.009Z,102616.19
2024-05-09T07:27:20.469Z,102606.78
2024-05-09T07:37:21.841Z,102621.16
2024-05-09T07:48:32.142Z,102609.25
2024-05-09T07:57:44.614Z,102611.59
2024-05-09T08:07:46.002Z,102606.56
2024-05-09T08:17:48.568Z,102588.91
2024-05-09T08:27:50.012Z,102592.34
2024-05-09T08:37:51.527Z,102582.81
2024-05-09T08:47:58.842Z,102589.81
2024-05-09T08:58:03.205Z,102588.19
2024-05-09T09:18:14.565Z,102577.53
2024-05-09T09:28:22.012Z,102569.69
2024-05-09T09:38:30.001Z,102564.47
2024-05-09T09:48:39.616Z,102558.31
2024-05-09T09:58:58.670Z,102551.25
2024-05-09T10:09:01.171Z,102546.91
2024-05-09T10:19:02.724Z,102539.84
2024-05-09T10:29:10.982Z,102539.81
2024-05-09T10:39:19.025Z,102521.47
2024-05-09T10:49:28.081Z,102512.78
2024-05-09T10:59:36.012Z,102506.69
2024-05-09T11:09:44.036Z,102502.97
2024-05-09T11:19:52.262Z,102501.06
2024-05-09T11:30:02.373Z,102483.53
2024-05-09T11:40:25.746Z,102470.59
2024-05-09T11:50:35.900Z,102473.34
2024-05-09T12:00:38.176Z,102458.19
2024-05-09T12:21:08.871Z,102433.66
2024-05-09T12:31:25.799Z,102420.50
2024-05-09T12:41:27.369Z,102410.81
2024-05-09T12:51:28.933Z,102399.28
2024-05-09T13:01:30.700Z,102393.97
2024-05-09T13:11:34.328Z,102389.47
2024-05-09T13:21:42.145Z,102392.19
2024-05-09T13:31:52.187Z,102373.84
2024-05-09T13:41:56.090Z,102376.53
2024-05-09T13:51:57.578Z,102378.22
2024-05-09T14:02:05.596Z,102366.94
2024-05-09T14:12:14.039Z,102360.06
2024-05-09T14:22:22.134Z,102351.22
2024-05-09T14:32:30.932Z,102340.66
2024-05-09T14:42:39.319Z,102343.34
2024-05-09T14:52:47.066Z,102338.13
2024-05-09T15:02:55.140Z,102337.09
2024-05-09T15:23:11.787Z,102313.63
2024-05-09T15:43:49.142Z,102303.13
2024-05-09T15:53:58.087Z,102298.00
2024-05-09T16:04:06.247Z,102296.25
2024-05-09T16:14:17.214Z,102285.31
2024-05-09T16:24:21.444Z,102277.75
2024-05-09T16:34:29.459Z,102282.19
2024-05-09T16:44:38.642Z,102277.00
2024-05-09T16:54:46.618Z,102261.97
2024-05-09T17:04:56.853Z,102267.22
2024-05-09T17:15:05.089Z,102255.66
2024-05-09T17:35:20.971Z,102249.47
2024-05-09T17:45:29.107Z,102249.22
2024-05-09T17:55:37.252Z,102255.28
2024-05-09T18:05:45.825Z,102245.72
2024-05-09T18:15:54.281Z,102235.91
2024-05-09T18:26:02.186Z,102244.75
2024-05-09T18:36:10.118Z,102248.19
2024-05-09T18:46:15.893Z,102247.31
2024-05-09T18:56:27.617Z,102252.88
2024-05-09T19:06:35.147Z,102253.91
2024-05-09T19:16:36.646Z,102256.53
2024-05-09T19:26:38.031Z,102259.97
2024-05-09T19:36:39.544Z,102269.56
2024-05-09T19:46:41.978Z,102263.41
2024-05-09T19:56:43.424Z,102276.66
2024-05-09T20:06:44.830Z,102260.03
2024-05-09T20:16:47.318Z,102263.88
2024-05-09T20:26:48.732Z,102260.44
2024-05-09T20:36:50.161Z,102263.31
2024-05-09T20:46:51.568Z,102275.25
2024-05-09T20:56:52.974Z,102277.47
2024-05-09T21:06:54.406Z,102283.59
2024-05-09T21:16:56.039Z,102286.44
2024-05-09T21:26:57.521Z,102275.00
2024-05-09T21:36:58.921Z,102280.03
2024-05-09T21:47:00.351Z,102284.38
2024-05-09T21:57:01.781Z,102284.31
2024-05-09T22:07:03.301Z,102280.94
2024-05-09T22:17:04.803Z,102278.56
2024-05-09T22:27:06.199Z,102275.84
2024-05-09T22:37:07.661Z,102270.41
2024-05-09T22:47:09.222Z,102283.28
2024-05-09T22:57:10.667Z,102272.13
2024-05-09T23:07:12.063Z,102272.56
2024-05-09T23:17:13.539Z,102273.31
2024-05-09T23:27:14.922Z,102270.31
2024-05-09T23:37:16.448Z,102272.06
2024-05-09T23:47:18.000Z,102268.94
2024-05-09T23:57:19.436Z,102259.22
